createdAt,value
2023-04-03T00:00:45.494Z,100.00
2023-04-03T00:03:11.910Z,100.00
2023-04-03T00:05:38.350Z,100.00
2023-04-03T00:08:08.607Z,100.00
2023-04-03T00:10:35.495Z,100.00
2023-04-03T00:13:03.052Z,100.00
2023-04-03T00:15:29.620Z,100.00
2023-04-03T00:17:56.054Z,100.00
2023-04-03T00:20:24.608Z,100.00
2023-04-03T00:22:51.296Z,100.00
2023-04-03T00:25:17.779Z,100.00
2023-04-03T00:27:44.187Z,100.00
2023-04-03T00:30:13.710Z,100.00
2023-04-03T00:32:40.329Z,100.00
2023-04-03T00:35:07.316Z,100.00
2023-04-03T00:37:34.225Z,100.00
2023-04-03T00:40:01.747Z,100.00
2023-04-03T00:42:28.274Z,100.00
2023-04-03T00:44:57.591Z,100.00
2023-04-03T00:47:25.438Z,100.00
2023-04-03T00:49:53.072Z,100.00
2023-04-03T00:52:24.190Z,100.00
2023-04-03T00:54:55.382Z,100.00
2023-04-03T00:57:23.560Z,100.00
2023-04-03T00:59:56.285Z,100.00
2023-04-03T01:02:22.887Z,100.00
2023-04-03T01:04:50.171Z,100.00
2023-04-03T01:07:24.589Z,100.00
2023-04-03T01:09:56.722Z,100.00
2023-04-03T01:12:31.329Z,100.00
2023-04-03T01:15:05.713Z,100.00
2023-04-03T01:17:36.809Z,100.00
2023-04-03T01:20:12.507Z,100.00
2023-04-03T01:22:47.084Z,100.00
2023-04-03T01:25:13.570Z,100.00
2023-04-03T01:27:39.971Z,100.00
2023-04-03T01:30:07.710Z,100.00
2023-04-03T01:32:34.398Z,100.00
2023-04-03T01:35:01.181Z,100.00
2023-04-03T01:37:27.572Z,100.00
2023-04-03T01:39:54.378Z,100.00
2023-04-03T01:42:20.770Z,100.00
2023-04-03T01:44:47.560Z,100.00
2023-04-03T01:47:13.933Z,100.00
2023-04-03T01:49:41.033Z,100.00
2023-04-03T01:52:07.542Z,100.00
2023-04-03T01:54:34.003Z,100.00
2023-04-03T01:57:00.774Z,100.00
2023-04-03T01:59:27.606Z,100.00
2023-04-03T02:01:54.052Z,100.00
2023-04-03T02:04:20.550Z,100.00
2023-04-03T02:06:47.152Z,100.00
2023-04-03T02:09:13.677Z,100.00
2023-04-03T02:11:40.260Z,100.00
2023-04-03T02:14:06.940Z,100.00
2023-04-03T02:16:34.129Z,100.00
2023-04-03T02:19:00.573Z,100.00
2023-04-03T02:21:27.151Z,100.00
2023-04-03T02:23:54.352Z,100.00
2023-04-03T02:26:20.957Z,100.00
2023-04-03T02:28:47.691Z,100.00
2023-04-03T02:31:14.709Z,100.00
2023-04-03T02:33:43.238Z,100.00
2023-04-03T02:36:11.788Z,100.00
2023-04-03T02:38:41.316Z,100.00
2023-04-03T02:41:11.625Z,100.00
2023-04-03T02:43:38.891Z,100.00
2023-04-03T02:46:06.620Z,100.00
2023-04-03T02:48:33.319Z,100.00
2023-04-03T02:50:59.941Z,100.00
2023-04-03T02:53:26.336Z,100.00
2023-04-03T02:55:52.842Z,100.00
2023-04-03T02:58:19.520Z,100.00
2023-04-03T03:00:46.018Z,100.00
2023-04-03T03:03:14.380Z,100.00
2023-04-03T03:05:40.819Z,100.00
2023-04-03T03:08:07.236Z,100.00
2023-04-03T03:10:33.753Z,100.00
2023-04-03T03:13:00.300Z,100.00
2023-04-03T03:15:26.932Z,100.00
2023-04-03T03:17:53.318Z,100.00
2023-04-03T03:20:20.311Z,100.00
2023-04-03T03:22:46.810Z,100.00
2023-04-03T03:25:13.226Z,100.00
2023-04-03T03:27:39.600Z,100.00
2023-04-03T03:30:07.718Z,100.00
2023-04-03T03:32:34.627Z,100.00
2023-04-03T03:35:02.001Z,100.00
2023-04-03T03:37:28.633Z,100.00
2023-04-03T03:39:55.263Z,100.00
2023-04-03T03:42:21.767Z,100.00
2023-04-03T03:44:49.456Z,100.00
2023-04-03T03:47:15.913Z,100.00
2023-04-03T03:49:42.839Z,100.00
2023-04-03T03:52:11.455Z,100.00
2023-04-03T03:54:38.947Z,100.00
2023-04-03T03:57:05.546Z,100.00
2023-04-03T03:59:32.150Z,100.00
2023-04-03T04:01:58.978Z,99.88
2023-04-03T04:04:25.476Z,99.72
2023-04-03T04:06:52.705Z,99.69
2023-04-03T04:09:19.401Z,98.93
2023-04-03T04:11:45.995Z,98.19
2023-04-03T04:14:14.342Z,98.19
2023-04-03T04:16:42.722Z,97.93
2023-04-03T04:19:15.367Z,97.79
2023-04-03T04:21:44.227Z,97.96
2023-04-03T04:24:11.024Z,97.88
2023-04-03T04:26:38.585Z,97.80
2023-04-03T04:29:06.087Z,98.08
2023-04-03T04:31:34.562Z,98.23
2023-04-03T04:34:01.484Z,97.86
2023-04-03T04:36:28.120Z,97.23
2023-04-03T04:38:54.739Z,96.91
2023-04-03T04:41:23.909Z,97.09
2023-04-03T04:43:51.825Z,97.36
2023-04-03T04:46:19.230Z,97.07
2023-04-03T04:48:50.806Z,96.87
2023-04-03T04:51:20.302Z,96.94
2023-04-03T04:53:47.003Z,96.80
2023-04-03T04:56:15.890Z,96.94
2023-04-03T04:58:43.028Z,96.47
2023-04-03T05:01:11.944Z,96.74
2023-04-03T05:03:48.699Z,96.81
2023-04-03T05:06:16.508Z,97.12
2023-04-03T05:08:42.935Z,97.14
2023-04-03T05:11:09.305Z,97.03
2023-04-03T05:13:35.942Z,97.54
2023-04-03T05:16:02.404Z,97.27
2023-04-03T05:18:29.214Z,97.01
2023-04-03T05:20:59.608Z,96.42
2023-04-03T05:23:27.258Z,96.77
2023-04-03T05:25:54.863Z,96.42
2023-04-03T05:28:22.312Z,96.16
2023-04-03T05:30:57.079Z,96.36
2023-04-03T05:33:25.723Z,97.72
2023-04-03T05:35:55.311Z,98.13
2023-04-03T05:38:26.898Z,97.80
2023-04-03T05:40:55.195Z,96.88
2023-04-03T05:43:21.645Z,97.19
2023-04-03T05:45:49.445Z,97.80
2023-04-03T05:48:16.715Z,97.36
2023-04-03T05:50:44.401Z,97.20
2023-04-03T05:53:21.968Z,97.56
2023-04-03T05:55:48.897Z,96.97
2023-04-03T05:58:15.760Z,97.00
2023-04-03T06:00:43.462Z,97.05
2023-04-03T06:03:10.172Z,96.94
2023-04-03T06:05:37.347Z,97.27
2023-04-03T06:08:04.152Z,97.14
2023-04-03T06:10:31.381Z,96.18
2023-04-03T06:12:57.944Z,95.80
2023-04-03T06:15:24.717Z,95.73
2023-04-03T06:17:51.414Z,95.67
2023-04-03T06:20:18.042Z,95.55
2023-04-03T06:22:44.483Z,95.77
2023-04-03T06:25:13.048Z,95.28
2023-04-03T06:27:39.790Z,95.23
2023-04-03T06:30:07.656Z,95.42
2023-04-03T06:32:34.279Z,94.88
2023-04-03T06:35:01.348Z,94.39
2023-04-03T06:37:29.685Z,94.30
2023-04-03T06:39:56.324Z,94.45
2023-04-03T06:42:23.880Z,93.47
2023-04-03T06:44:59.678Z,93.91
2023-04-03T06:47:26.296Z,94.06
2023-04-03T06:49:52.784Z,93.99
2023-04-03T06:52:19.158Z,93.26
2023-04-03T06:54:45.725Z,93.52
2023-04-03T06:57:12.128Z,93.85
2023-04-03T06:59:38.793Z,93.44
2023-04-03T07:02:05.494Z,92.88
2023-04-03T07:04:32.330Z,93.51
2023-04-03T07:06:58.818Z,92.87
2023-04-03T07:09:25.547Z,92.10
2023-04-03T07:11:53.091Z,91.45
2023-04-03T07:14:19.457Z,91.12
2023-04-03T07:16:46.031Z,90.47
2023-04-03T07:19:12.672Z,90.20
2023-04-03T07:21:39.261Z,90.46
2023-04-03T07:24:05.955Z,89.96
2023-04-03T07:26:32.774Z,90.18
2023-04-03T07:28:59.192Z,89.36
2023-04-03T07:31:26.212Z,89.13
2023-04-03T07:33:52.707Z,88.98
2023-04-03T07:36:21.749Z,88.31
2023-04-03T07:38:48.591Z,87.49
2023-04-03T07:41:18.592Z,86.99
2023-04-03T07:43:46.056Z,86.90
2023-04-03T07:46:13.066Z,87.10
2023-04-03T07:48:39.649Z,85.14
2023-04-03T07:51:06.729Z,84.99
2023-04-03T07:53:34.091Z,82.90
2023-04-03T07:56:01.339Z,83.18
2023-04-03T07:58:27.865Z,82.08
2023-04-03T08:00:54.582Z,82.12
2023-04-03T08:03:21.337Z,82.81
2023-04-03T08:05:49.904Z,81.47
2023-04-03T08:08:21.361Z,80.89
2023-04-03T08:10:55.075Z,78.83
2023-04-03T08:13:22.530Z,77.80
2023-04-03T08:15:49.203Z,74.16
2023-04-03T08:18:16.900Z,73.75
2023-04-03T08:20:44.248Z,72.96
2023-04-03T08:23:11.407Z,72.31
2023-04-03T08:25:42.409Z,73.17
2023-04-03T08:28:10.384Z,72.29
2023-04-03T08:30:37.010Z,71.00
2023-04-03T08:33:04.405Z,70.29
2023-04-03T08:35:30.985Z,68.60
2023-04-03T08:37:57.637Z,69.01
2023-04-03T08:40:25.451Z,67.28
2023-04-03T08:42:57.680Z,68.09
2023-04-03T08:45:46.280Z,65.55
2023-04-03T08:48:34.666Z,65.36
2023-04-03T08:51:10.830Z,63.11
2023-04-03T08:53:43.270Z,63.10
2023-04-03T08:56:10.937Z,62.30
2023-04-03T08:59:11.617Z,60.83
2023-04-03T09:01:41.788Z,60.94
2023-04-03T09:04:19.036Z,61.24
2023-04-03T09:06:53.195Z,56.56
2023-04-03T09:09:44.788Z,55.91
2023-04-03T09:12:51.367Z,56.37
2023-04-03T09:15:37.854Z,55.66
2023-04-03T09:18:17.670Z,57.50
2023-04-03T09:21:05.785Z,53.26
2023-04-03T09:23:51.658Z,53.84
2023-04-03T09:26:36.339Z,52.60
2023-04-03T09:29:07.914Z,52.96
2023-04-03T09:31:46.500Z,51.04
2023-04-03T09:34:27.182Z,51.27
2023-04-03T09:36:55.838Z,48.75
2023-04-03T09:39:28.072Z,46.52
2023-04-03T09:42:20.620Z,45.03
2023-04-03T09:44:57.421Z,47.93
2023-04-03T09:47:30.112Z,47.89
2023-04-03T09:50:14.984Z,49.01
2023-04-03T09:52:43.828Z,48.59
2023-04-03T09:55:28.355Z,46.96
2023-04-03T09:57:57.808Z,45.32
2023-04-03T10:00:27.758Z,44.88
2023-04-03T10:02:58.865Z,43.64
2023-04-03T10:05:35.160Z,44.42
2023-04-03T10:08:20.996Z,44.82
2023-04-03T10:10:50.107Z,42.25
2023-04-03T10:13:24.307Z,42.59
2023-04-03T10:16:07.560Z,40.36
2023-04-03T10:18:43.050Z,39.48
2023-04-03T10:21:36.597Z,40.22
2023-04-03T10:24:14.946Z,39.32
2023-04-03T10:27:09.478Z,40.39
2023-04-03T10:30:20.217Z,41.91
2023-04-03T10:33:00.017Z,40.38
2023-04-03T10:35:37.792Z,41.32
2023-04-03T10:38:41.662Z,40.94
2023-04-03T10:41:26.542Z,41.26
2023-04-03T10:44:12.915Z,40.05
2023-04-03T10:46:44.194Z,40.25
2023-04-03T10:49:36.119Z,39.84
2023-04-03T10:52:13.197Z,40.07
2023-04-03T10:54:44.529Z,39.84
2023-04-03T10:57:13.444Z,40.45
2023-04-03T10:59:51.814Z,39.81
2023-04-03T11:02:32.415Z,40.14
2023-04-03T11:05:09.389Z,39.81
2023-04-03T11:07:41.843Z,40.58
2023-04-03T11:10:20.244Z,38.62
2023-04-03T11:12:55.335Z,39.00
2023-04-03T11:15:25.372Z,37.86
2023-04-03T11:17:56.468Z,37.50
2023-04-03T11:20:34.978Z,35.82
2023-04-03T11:23:25.644Z,37.08
2023-04-03T11:25:57.482Z,37.69
2023-04-03T11:28:23.860Z,38.43
2023-04-03T11:31:29.431Z,36.63
2023-04-03T11:34:39.154Z,32.51
2023-04-03T11:37:14.287Z,34.04
2023-04-03T11:39:48.801Z,33.52
2023-04-03T11:42:29.787Z,32.13
2023-04-03T11:45:25.483Z,31.07
2023-04-03T11:47:56.949Z,31.23
2023-04-03T11:50:39.312Z,31.14
2023-04-03T11:53:08.912Z,31.03
2023-04-03T11:55:35.524Z,29.95
2023-04-03T11:58:02.046Z,29.38
2023-04-03T12:00:51.549Z,30.17
2023-04-03T12:03:23.764Z,29.32
2023-04-03T12:05:56.949Z,29.37
2023-04-03T12:08:28.641Z,28.94
2023-04-03T12:11:13.426Z,28.52
2023-04-03T12:13:54.998Z,28.17
2023-04-03T12:16:23.229Z,27.96
2023-04-03T12:18:49.586Z,27.28
2023-04-03T12:21:20.698Z,27.56
2023-04-03T12:24:02.285Z,27.30
2023-04-03T12:26:45.897Z,27.10
2023-04-03T12:29:43.854Z,26.63
2023-04-03T12:32:11.469Z,25.73
2023-04-03T12:34:55.972Z,25.77
2023-04-03T12:37:59.271Z,26.14
2023-04-03T12:40:34.937Z,25.82
2023-04-03T12:43:18.682Z,25.39
2023-04-03T12:45:47.515Z,24.56
2023-04-03T12:48:22.215Z,24.28
2023-04-03T12:50:50.172Z,24.66
2023-04-03T12:53:24.204Z,24.35
2023-04-03T12:56:17.868Z,23.96
2023-04-03T12:58:44.175Z,24.06
2023-04-03T13:01:14.860Z,23.98
2023-04-03T13:03:45.521Z,24.39
2023-04-03T13:06:19.933Z,23.62
2023-04-03T13:08:54.201Z,24.35
2023-04-03T13:11:22.387Z,24.08
2023-04-03T13:13:57.125Z,23.98
2023-04-03T13:16:23.872Z,24.18
2023-04-03T13:18:55.198Z,23.91
2023-04-03T13:21:26.657Z,23.77
2023-04-03T13:24:07.030Z,23.46
2023-04-03T13:26:39.335Z,23.49
2023-04-03T13:29:24.380Z,23.35
2023-04-03T13:31:57.770Z,23.48
2023-04-03T13:34:27.409Z,23.24
2023-04-03T13:37:00.321Z,23.56
2023-04-03T13:39:31.965Z,23.28
2023-04-03T13:42:16.781Z,23.41
2023-04-03T13:44:43.533Z,23.35
2023-04-03T13:47:12.697Z,22.75
2023-04-03T13:49:42.431Z,23.21
2023-04-03T13:52:21.280Z,23.08
2023-04-03T13:54:52.276Z,22.89
2023-04-03T13:57:18.865Z,22.73
2023-04-03T13:59:45.590Z,23.02
2023-04-03T14:02:34.203Z,22.77
2023-04-03T14:05:04.140Z,23.17
2023-04-03T14:07:32.070Z,22.71
2023-04-03T14:09:58.905Z,22.85
2023-04-03T14:12:31.239Z,22.83
2023-04-03T14:14:58.732Z,22.99
2023-04-03T14:17:28.568Z,22.87
2023-04-03T14:19:56.548Z,22.38
2023-04-03T14:22:29.553Z,23.02
2023-04-03T14:24:56.966Z,23.18
2023-04-03T14:27:28.232Z,23.08
2023-04-03T14:29:57.024Z,23.53
2023-04-03T14:32:25.207Z,23.19
2023-04-03T14:34:52.409Z,23.09
2023-04-03T14:37:23.405Z,23.08
2023-04-03T14:39:51.869Z,23.15
2023-04-03T14:42:25.184Z,22.99
2023-04-03T14:44:52.765Z,23.21
2023-04-03T14:47:31.302Z,23.35
2023-04-03T14:50:08.301Z,23.37
2023-04-03T14:52:36.693Z,23.68
2023-04-03T14:55:06.653Z,23.22
2023-04-03T14:57:34.577Z,23.53
2023-04-03T15:00:02.870Z,23.82
2023-04-03T15:02:36.070Z,23.79
2023-04-03T15:05:05.889Z,23.93
2023-04-03T15:07:37.006Z,23.87
2023-04-03T15:10:24.621Z,24.31
2023-04-03T15:12:51.348Z,24.51
2023-04-03T15:15:20.955Z,24.37
2023-04-03T15:17:51.295Z,24.68
2023-04-03T15:20:20.354Z,24.64
2023-04-03T15:22:46.850Z,24.51
2023-04-03T15:25:13.394Z,25.04
2023-04-03T15:27:41.331Z,25.02
2023-04-03T15:30:13.956Z,25.04
2023-04-03T15:32:40.564Z,25.14
2023-04-03T15:35:07.418Z,25.25
2023-04-03T15:37:33.937Z,25.64
2023-04-03T15:40:00.688Z,25.41
2023-04-03T15:42:27.107Z,26.16
2023-04-03T15:44:53.806Z,26.35
2023-04-03T15:47:20.334Z,26.67
2023-04-03T15:49:46.905Z,26.69
2023-04-03T15:52:13.419Z,27.12
2023-04-03T15:54:40.337Z,26.79
2023-04-03T15:57:06.787Z,27.27
2023-04-03T15:59:33.332Z,27.71
2023-04-03T16:02:02.136Z,27.82
2023-04-03T16:04:28.832Z,27.81
2023-04-03T16:06:55.283Z,28.07
2023-04-03T16:09:21.716Z,28.63
2023-04-03T16:11:48.086Z,28.21
2023-04-03T16:14:14.668Z,28.55
2023-04-03T16:16:41.519Z,28.73
2023-04-03T16:19:08.247Z,28.26
2023-04-03T16:21:34.703Z,29.10
2023-04-03T16:24:02.201Z,29.40
2023-04-03T16:26:28.835Z,29.88
2023-04-03T16:28:55.599Z,29.77
2023-04-03T16:31:23.771Z,30.29
2023-04-03T16:33:50.304Z,30.34
2023-04-03T16:36:16.754Z,29.80
2023-04-03T16:38:43.333Z,29.69
2023-04-03T16:41:09.727Z,29.83
2023-04-03T16:43:37.906Z,30.13
2023-04-03T16:46:04.590Z,30.52
2023-04-03T16:48:31.505Z,30.70
2023-04-03T16:50:58.161Z,30.81
2023-04-03T16:53:25.671Z,31.34
2023-04-03T16:55:52.771Z,31.42
2023-04-03T16:58:20.245Z,31.37
2023-04-03T17:00:48.284Z,31.70
2023-04-03T17:03:14.838Z,32.61
2023-04-03T17:05:41.586Z,31.79
2023-04-03T17:08:08.224Z,31.74
2023-04-03T17:10:36.247Z,32.39
2023-04-03T17:13:03.037Z,32.47
2023-04-03T17:15:29.816Z,33.10
2023-04-03T17:17:56.578Z,32.61
2023-04-03T17:20:23.185Z,33.05
2023-04-03T17:22:49.616Z,33.33
2023-04-03T17:25:16.806Z,33.79
2023-04-03T17:27:43.352Z,34.00
2023-04-03T17:30:10.183Z,33.79
2023-04-03T17:32:38.310Z,33.96
2023-04-03T17:35:05.318Z,34.31
2023-04-03T17:37:31.691Z,34.36
2023-04-03T17:39:58.125Z,34.37
2023-04-03T17:42:24.916Z,34.59
2023-04-03T17:44:51.343Z,35.11
2023-04-03T17:47:17.733Z,35.17
2023-04-03T17:49:44.113Z,35.06
2023-04-03T17:52:10.524Z,35.60
2023-04-03T17:54:37.042Z,35.30
2023-04-03T17:57:04.438Z,35.55
2023-04-03T17:59:30.974Z,35.62
2023-04-03T18:01:58.458Z,35.44
2023-04-03T18:04:25.317Z,35.17
2023-04-03T18:06:55.258Z,35.64
2023-04-03T18:09:26.189Z,35.52
2023-04-03T18:11:53.980Z,36.29
2023-04-03T18:14:24.941Z,36.67
2023-04-03T18:16:51.729Z,36.88
2023-04-03T18:19:23.470Z,37.09
2023-04-03T18:21:57.332Z,38.58
2023-04-03T18:24:26.029Z,37.61
2023-04-03T18:26:58.511Z,37.39
2023-04-03T18:29:25.821Z,38.54
2023-04-03T18:31:55.727Z,38.52
2023-04-03T18:34:22.468Z,38.40
2023-04-03T18:36:49.083Z,39.30
2023-04-03T18:39:15.837Z,39.19
2023-04-03T18:41:42.603Z,39.49
2023-04-03T18:44:13.212Z,39.59
2023-04-03T18:46:40.186Z,41.47
2023-04-03T18:49:07.878Z,40.30
2023-04-03T18:51:34.914Z,40.57
2023-04-03T18:54:02.653Z,41.05
2023-04-03T18:56:30.022Z,41.34
2023-04-03T18:58:56.659Z,41.78
2023-04-03T19:01:23.454Z,42.35
2023-04-03T19:03:50.394Z,42.68
2023-04-03T19:06:16.838Z,44.26
2023-04-03T19:08:43.375Z,43.88
2023-04-03T19:11:11.047Z,44.65
2023-04-03T19:13:46.523Z,45.20
2023-04-03T19:16:23.979Z,46.37
2023-04-03T19:18:50.515Z,47.03
2023-04-03T19:21:17.972Z,46.38
2023-04-03T19:23:44.920Z,48.13
2023-04-03T19:26:13.230Z,49.30
2023-04-03T19:28:40.106Z,49.84
2023-04-03T19:31:18.106Z,48.68
2023-04-03T19:33:45.157Z,50.44
2023-04-03T19:36:12.177Z,52.66
2023-04-03T19:38:39.543Z,52.57
2023-04-03T19:41:08.866Z,53.95
2023-04-03T19:43:35.474Z,55.18
2023-04-03T19:46:02.242Z,55.88
2023-04-03T19:48:29.437Z,56.86
2023-04-03T19:50:55.953Z,57.49
2023-04-03T19:53:24.416Z,59.46
2023-04-03T19:55:50.821Z,59.71
2023-04-03T19:58:17.307Z,57.35
2023-04-03T20:00:43.777Z,54.11
2023-04-03T20:03:10.230Z,54.91
2023-04-03T20:05:36.697Z,54.96
2023-04-03T20:08:03.318Z,55.40
2023-04-03T20:10:29.678Z,55.28
2023-04-03T20:12:56.073Z,53.48
2023-04-03T20:15:22.842Z,53.34
2023-04-03T20:17:49.569Z,51.38
2023-04-03T20:20:16.405Z,51.75
2023-04-03T20:22:42.810Z,53.37
2023-04-03T20:25:12.321Z,51.76
2023-04-03T20:27:40.451Z,51.29
2023-04-03T20:30:11.538Z,50.79
2023-04-03T20:32:38.290Z,52.13
2023-04-03T20:35:05.160Z,51.87
2023-04-03T20:37:32.312Z,51.08
2023-04-03T20:39:58.713Z,51.18
2023-04-03T20:42:26.255Z,52.11
2023-04-03T20:44:52.679Z,51.27
2023-04-03T20:47:19.502Z,53.17
2023-04-03T20:49:46.125Z,53.23
2023-04-03T20:52:12.541Z,52.72
2023-04-03T20:54:39.923Z,53.80
2023-04-03T20:57:06.364Z,54.29
2023-04-03T20:59:34.170Z,53.69
2023-04-03T21:02:01.069Z,53.63
2023-04-03T21:04:46.329Z,53.81
2023-04-03T21:07:51.002Z,54.19
2023-04-03T21:10:55.172Z,55.08
2023-04-03T21:13:40.620Z,56.46
2023-04-03T21:16:06.980Z,54.68
2023-04-03T21:18:52.268Z,53.47
2023-04-03T21:21:26.415Z,54.38
2023-04-03T21:23:54.935Z,54.03
2023-04-03T21:26:22.889Z,54.36
2023-04-03T21:28:52.984Z,57.04
2023-04-03T21:31:21.167Z,57.19
2023-04-03T21:33:47.657Z,56.99
2023-04-03T21:36:15.247Z,59.37
2023-04-03T21:38:42.054Z,61.07
2023-04-03T21:41:08.457Z,60.70
2023-04-03T21:43:34.882Z,60.51
2023-04-03T21:46:01.801Z,60.12
2023-04-03T21:48:30.423Z,61.72
2023-04-03T21:51:06.486Z,63.37
2023-04-03T21:53:34.974Z,64.43
2023-04-03T21:56:02.426Z,65.66
2023-04-03T21:58:33.027Z,66.60
2023-04-03T22:01:13.625Z,66.32
2023-04-03T22:03:43.802Z,67.18
2023-04-03T22:06:12.010Z,67.51
2023-04-03T22:08:38.709Z,68.79
2023-04-03T22:11:08.564Z,68.49
2023-04-03T22:13:35.621Z,70.12
2023-04-03T22:16:02.478Z,69.99
2023-04-03T22:18:29.897Z,70.41
2023-04-03T22:20:56.411Z,70.99
2023-04-03T22:23:22.906Z,70.63
2023-04-03T22:26:08.656Z,72.28
2023-04-03T22:28:38.305Z,73.41
2023-04-03T22:31:08.360Z,74.14
2023-04-03T22:33:38.672Z,74.26
2023-04-03T22:36:06.655Z,74.77
2023-04-03T22:38:33.777Z,74.25
2023-04-03T22:41:02.128Z,73.94
2023-04-03T22:43:30.001Z,74.29
2023-04-03T22:45:57.595Z,75.26
2023-04-03T22:48:24.599Z,75.36
2023-04-03T22:50:51.715Z,75.04
2023-04-03T22:53:18.754Z,76.42
2023-04-03T22:55:54.438Z,76.42
2023-04-03T22:58:25.508Z,77.03
2023-04-03T23:00:56.069Z,77.49
2023-04-03T23:03:24.256Z,77.92
2023-04-03T23:05:53.758Z,78.50
2023-04-03T23:08:20.845Z,78.83
2023-04-03T23:10:47.524Z,79.21
2023-04-03T23:13:14.134Z,79.90
2023-04-03T23:15:40.727Z,80.01
2023-04-03T23:18:07.173Z,80.78
2023-04-03T23:20:33.593Z,81.04
2023-04-03T23:23:00.106Z,81.51
2023-04-03T23:25:26.562Z,81.80
2023-04-03T23:27:53.530Z,81.94
2023-04-03T23:30:21.030Z,82.40
2023-04-03T23:32:48.176Z,83.23
2023-04-03T23:35:14.749Z,83.83
2023-04-03T23:37:41.152Z,83.74
2023-04-03T23:40:08.273Z,83.82
2023-04-03T23:42:34.651Z,83.68
2023-04-03T23:45:01.332Z,84.37
2023-04-03T23:47:27.767Z,84.88
2023-04-03T23:49:54.196Z,85.02
2023-04-03T23:52:20.572Z,85.42
2023-04-03T23:54:47.478Z,85.48
2023-04-03T23:57:13.874Z,86.10
2023-04-03T23:59:40.257Z,86.04
